Sharon, Michigan
Current Conditions -  °F | °C
As of 9:53 PM on Friday 28 Nov 2014 (Local Time) from KARB Reporting Station
Overcast Overcast  
Wind Chill: 27°   Ceiling: 7000
Heat Index: 27°   Visibility: 10mi
Dew Point: 21°   Wind: 3mph
Humidity: 78%   Direction: 160°SSE
Pressure: 30.09"   Gusts: NA
Location:  42.1633°N, 84.0265°W
Report Text: KARB 290253Z AUTO 16003KT 10SM BKN070 OVC100 M03/M06 A3009 RMK AO2 SLP201 T10281061 56014
Loading
Personal Weather Stations






























Interactive Weather Map New forecast layout! Learn more

10-Day Weather Forecast

Advertisements
Track Severe Weather on mobile